Time;durP1;ratioP1;P1;durP2;ratioP2;P2;SDS_P1;SDS_P2;PMS_P1;PMS_P2;Temp;Humidity;BMP_temperature;BMP_pressure;BME280_temperature;BME280_humidity;BME280_pressure;Samples;Min_cycle;Max_cycle;Signal;HPM_P1;HPM_P2
2021/06/22 00:02:12;;;;;;;3.58;2.03;;;19.50;99.90;;;;;;5063229;28;20136;-78
2021/06/22 00:04:37;;;;;;;4.93;2.20;;;19.50;99.90;;;;;;5033148;28;20029;-78
2021/06/22 00:07:03;;;;;;;4.47;1.80;;;19.20;99.90;;;;;;5050418;28;20030;-79
2021/06/22 00:09:29;;;;;;;3.55;1.80;;;19.30;99.90;;;;;;5049960;28;20164;-78
2021/06/22 00:11:54;;;;;;;4.22;2.20;;;19.10;99.90;;;;;;5058460;28;20020;-77
2021/06/22 00:14:20;;;;;;;3.13;1.80;;;19.10;99.90;;;;;;5048684;28;20029;-79
2021/06/22 00:16:46;;;;;;;6.30;2.28;;;19.00;99.90;;;;;;5031868;28;20048;-78
2021/06/22 00:19:13;;;;;;;3.58;1.92;;;19.00;99.90;;;;;;5050459;28;20044;-78
2021/06/22 00:21:39;;;;;;;4.88;2.03;;;19.00;99.90;;;;;;5032866;28;20470;-78
2021/06/22 00:24:05;;;;;;;4.10;1.70;;;19.10;99.90;;;;;;5049889;28;20060;-77
2021/06/22 00:26:31;;;;;;;3.63;1.88;;;19.10;99.90;;;;;;5071410;28;20039;-78
2021/06/22 00:28:56;;;;;;;3.53;1.83;;;19.20;99.90;;;;;;5071786;28;20463;-78
2021/06/22 00:31:22;;;;;;;3.85;1.67;;;19.10;99.90;;;;;;5072540;28;20040;-78
2021/06/22 00:33:48;;;;;;;5.50;1.55;;;19.10;99.90;;;;;;5050436;28;20045;-77
2021/06/22 00:36:13;;;;;;;3.95;1.50;;;19.10;99.90;;;;;;5089659;28;20088;-79
2021/06/22 00:38:40;;;;;;;4.63;2.05;;;19.10;99.90;;;;;;5089101;28;20035;-79
2021/06/22 00:41:06;;;;;;;6.28;1.88;;;19.10;99.90;;;;;;5089289;28;20036;-78
2021/06/22 00:43:32;;;;;;;4.85;2.40;;;19.20;99.90;;;;;;5056530;28;20152;-78
2021/06/22 00:46:00;;;;;;;4.40;2.00;;;19.10;99.90;;;;;;5049032;28;20499;-77
2021/06/22 00:48:25;;;;;;;5.00;1.90;;;19.10;99.90;;;;;;5048396;28;20064;-78
2021/06/22 00:50:51;;;;;;;4.93;2.25;;;19.00;99.90;;;;;;5048932;28;20030;-79
2021/06/22 00:53:17;;;;;;;3.25;1.77;;;19.00;99.90;;;;;;5049443;28;20127;-78
2021/06/22 00:55:42;;;;;;;3.15;1.70;;;19.00;99.90;;;;;;5049411;28;20032;-78
2021/06/22 00:58:08;;;;;;;2.67;1.77;;;18.90;99.90;;;;;;5049045;28;20096;-78
2021/06/22 01:00:37;;;;;;;4.15;1.83;;;18.90;99.90;;;;;;5033222;28;20030;-78
2021/06/22 01:03:03;;;;;;;4.90;2.03;;;18.90;99.90;;;;;;5031241;28;20036;-77
2021/06/22 01:05:29;;;;;;;5.93;2.10;;;18.90;99.90;;;;;;5031224;28;20029;-78
2021/06/22 01:07:57;;;;;;;3.85;1.65;;;18.80;99.90;;;;;;5049436;28;20026;-79
2021/06/22 01:10:24;;;;;;;3.65;1.77;;;18.90;99.90;;;;;;5048765;28;20021;-79
2021/06/22 01:12:51;;;;;;;4.57;2.28;;;18.90;99.90;;;;;;5048366;28;20123;-79
2021/06/22 01:15:19;;;;;;;6.13;2.20;;;18.90;99.90;;;;;;5048386;28;20036;-78
2021/06/22 01:17:45;;;;;;;4.55;2.10;;;18.90;99.90;;;;;;5048648;28;20044;-78
2021/06/22 01:20:12;;;;;;;4.85;2.20;;;18.80;99.90;;;;;;5048641;28;20025;-78
2021/06/22 01:22:43;;;;;;;4.53;1.92;;;18.80;99.90;;;;;;5048832;28;20707;-78
2021/06/22 01:25:10;;;;;;;3.22;2.17;;;18.70;99.90;;;;;;5048421;28;20029;-78
2021/06/22 01:27:35;;;;;;;5.80;2.38;;;18.80;99.90;;;;;;5049354;28;20100;-78
2021/06/22 01:30:01;;;;;;;5.18;2.25;;;18.80;99.90;;;;;;5067990;28;20105;-78
2021/06/22 01:32:27;;;;;;;4.00;2.50;;;18.90;99.90;;;;;;5068371;28;20037;-77
2021/06/22 01:34:56;;;;;;;4.85;2.40;;;18.90;99.90;;;;;;5069539;28;20533;-79
2021/06/22 01:37:22;;;;;;;4.78;2.30;;;18.90;99.90;;;;;;5041207;28;20042;-78
2021/06/22 01:39:48;;;;;;;5.18;2.70;;;18.80;99.90;;;;;;5040676;28;20052;-77
2021/06/22 01:42:13;;;;;;;4.25;2.20;;;18.90;99.90;;;;;;5038750;28;20026;-77
2021/06/22 01:44:39;;;;;;;5.47;3.17;;;18.90;99.90;;;;;;5040110;28;20052;-77
2021/06/22 01:47:05;;;;;;;5.10;3.33;;;18.90;99.90;;;;;;5040508;28;20017;-77
2021/06/22 01:49:31;;;;;;;5.03;3.58;;;18.90;99.90;;;;;;5039978;28;20075;-77
2021/06/22 01:51:57;;;;;;;6.82;3.45;;;18.80;99.90;;;;;;5037979;28;20503;-78
2021/06/22 01:54:22;;;;;;;6.82;4.00;;;18.70;99.90;;;;;;5040860;28;20057;-77
2021/06/22 01:56:50;;;;;;;8.23;3.40;;;18.70;99.90;;;;;;5041236;28;20112;-77
2021/06/22 01:59:16;;;;;;;5.68;3.25;;;18.70;99.90;;;;;;5040427;28;20148;-78
2021/06/22 02:01:42;;;;;;;6.97;3.55;;;18.70;99.90;;;;;;5039734;28;20029;-77
2021/06/22 02:04:09;;;;;;;4.90;3.17;;;18.60;99.90;;;;;;5065644;22;20052;-79
2021/06/22 02:06:35;;;;;;;6.57;3.08;;;18.50;99.90;;;;;;5065227;28;20028;-78
2021/06/22 02:09:00;;;;;;;7.32;3.42;;;18.40;99.90;;;;;;5093017;28;20093;-79
2021/06/22 02:11:26;;;;;;;5.03;3.03;;;18.50;99.90;;;;;;5093181;28;20538;-79
2021/06/22 02:13:52;;;;;;;4.20;3.00;;;18.40;99.90;;;;;;5057207;28;20025;-79
2021/06/22 02:16:18;;;;;;;6.72;3.15;;;18.40;99.90;;;;;;5056788;28;20469;-79
2021/06/22 02:18:44;;;;;;;5.03;2.80;;;18.30;99.90;;;;;;5056238;28;20033;-79
2021/06/22 02:21:11;;;;;;;7.30;3.45;;;18.30;99.90;;;;;;5057615;28;20025;-78
2021/06/22 02:23:38;;;;;;;5.82;3.20;;;18.20;99.90;;;;;;5056288;28;20240;-79
2021/06/22 02:26:05;;;;;;;8.15;3.60;;;18.20;99.90;;;;;;5056343;28;20032;-78
2021/06/22 02:28:31;;;;;;;4.75;2.95;;;18.20;99.90;;;;;;5067331;28;20039;-79
2021/06/22 02:30:58;;;;;;;6.45;2.63;;;18.20;99.90;;;;;;5065646;28;20029;-79
2021/06/22 02:33:24;;;;;;;4.60;3.08;;;18.20;99.90;;;;;;5055257;28;20087;-79
2021/06/22 02:35:50;;;;;;;4.05;2.40;;;18.20;99.90;;;;;;5037971;28;20039;-80
2021/06/22 02:38:16;;;;;;;4.63;2.70;;;18.30;99.90;;;;;;5065149;28;20020;-80
2021/06/22 02:40:42;;;;;;;5.47;2.90;;;18.30;99.90;;;;;;5063034;28;20021;-79
2021/06/22 02:43:08;;;;;;;4.50;2.50;;;18.30;99.90;;;;;;5055834;28;20132;-80
2021/06/22 02:45:34;;;;;;;5.68;2.83;;;18.30;99.90;;;;;;5055659;28;20056;-80
2021/06/22 02:48:00;;;;;;;5.32;2.88;;;18.30;99.90;;;;;;5055847;28;20025;-79
2021/06/22 02:50:26;;;;;;;6.18;2.60;;;18.30;99.90;;;;;;5037408;28;20021;-80
2021/06/22 02:52:51;;;;;;;4.50;2.50;;;18.40;99.90;;;;;;5055696;28;20029;-79
2021/06/22 02:55:18;;;;;;;5.13;2.80;;;18.40;99.90;;;;;;5053872;28;20417;-80
2021/06/22 02:57:55;;;;;;;4.13;2.67;;;18.50;99.90;;;;;;5055530;28;20074;-80
2021/06/22 03:00:27;;;;;;;13.68;3.33;;;18.50;99.90;;;;;;5055104;28;20029;-78
2021/06/22 03:02:54;;;;;;;4.45;2.63;;;18.60;99.90;;;;;;5055373;28;20025;-80
2021/06/22 03:05:20;;;;;;;6.53;3.25;;;18.60;99.90;;;;;;5036357;28;20036;-79
2021/06/22 03:07:46;;;;;;;5.35;2.67;;;18.60;99.90;;;;;;5055041;28;20044;-79
2021/06/22 03:10:14;;;;;;;5.40;2.47;;;18.50;99.90;;;;;;5054791;28;20021;-79
2021/06/22 03:12:40;;;;;;;5.55;3.10;;;18.50;99.90;;;;;;5068194;28;20070;-80
2021/06/22 03:15:08;;;;;;;4.38;2.50;;;18.50;99.90;;;;;;5072728;28;20023;-79
2021/06/22 03:17:34;;;;;;;6.35;3.00;;;18.50;99.90;;;;;;5054441;28;20515;-79
2021/06/22 03:20:00;;;;;;;7.15;3.50;;;18.50;99.90;;;;;;5054977;28;20021;-79
2021/06/22 03:22:26;;;;;;;6.35;3.40;;;18.50;99.90;;;;;;5036304;28;20339;-80
2021/06/22 03:24:52;;;;;;;5.07;3.58;;;18.50;99.90;;;;;;5054084;28;20027;-79
2021/06/22 03:27:20;;;;;;;5.05;3.33;;;18.50;99.90;;;;;;5054478;28;20071;-80
2021/06/22 03:29:45;;;;;;;7.03;3.70;;;18.50;99.90;;;;;;5074749;28;20044;-80
2021/06/22 03:32:11;;;;;;;5.55;3.20;;;18.50;99.90;;;;;;5069358;28;20029;-79
2021/06/22 03:34:37;;;;;;;5.47;3.70;;;18.50;99.90;;;;;;5054014;28;20104;-79
2021/06/22 03:37:03;;;;;;;6.45;3.70;;;18.50;99.90;;;;;;5054763;28;20029;-80
2021/06/22 03:39:29;;;;;;;5.13;3.40;;;18.50;99.90;;;;;;5054278;28;20029;-79
2021/06/22 03:41:55;;;;;;;5.78;3.28;;;18.50;99.90;;;;;;5053764;28;20025;-79
2021/06/22 03:44:21;;;;;;;5.78;3.38;;;18.50;99.90;;;;;;5053717;28;20497;-79
2021/06/22 03:46:46;;;;;;;5.68;3.97;;;18.40;99.90;;;;;;5054190;28;20021;-79
2021/06/22 03:49:12;;;;;;;6.57;3.30;;;18.40;99.90;;;;;;5052233;28;20025;-79
2021/06/22 03:51:38;;;;;;;5.93;4.13;;;18.40;99.90;;;;;;5052589;28;20488;-79
2021/06/22 03:54:03;;;;;;;6.40;4.00;;;18.40;99.90;;;;;;5054462;28;20036;-79
2021/06/22 03:56:29;;;;;;;6.80;4.00;;;18.50;99.90;;;;;;5054713;28;20052;-80
2021/06/22 03:58:55;;;;;;;5.93;3.95;;;18.50;99.90;;;;;;5054350;28;20017;-80
2021/06/22 04:01:22;;;;;;;8.70;3.70;;;18.50;99.90;;;;;;5067588;28;20097;-80
2021/06/22 04:03:48;;;;;;;6.03;3.28;;;18.60;99.90;;;;;;5067606;28;20028;-80
2021/06/22 04:06:14;;;;;;;6.13;3.47;;;18.50;99.90;;;;;;5076345;28;20093;-79
2021/06/22 04:08:41;;;;;;;4.78;3.08;;;18.60;99.90;;;;;;5047239;28;20029;-80
2021/06/22 04:11:08;;;;;;;5.55;3.75;;;18.60;99.90;;;;;;5060876;28;20059;-79
2021/06/22 04:13:34;;;;;;;7.28;3.80;;;18.70;99.90;;;;;;5072196;28;20437;-80
2021/06/22 04:16:00;;;;;;;5.60;3.47;;;18.70;99.90;;;;;;5072772;28;20032;-80
2021/06/22 04:18:26;;;;;;;5.85;3.20;;;18.70;99.90;;;;;;5055101;28;20074;-80
2021/06/22 04:20:52;;;;;;;7.75;4.10;;;18.70;99.90;;;;;;5076992;28;20043;-80
2021/06/22 04:23:17;;;;;;;6.63;3.55;;;18.80;99.90;;;;;;5083119;28;20169;-78
2021/06/22 04:25:43;;;;;;;5.53;3.47;;;18.70;99.90;;;;;;5055979;28;20032;-80
2021/06/22 04:28:09;;;;;;;8.57;4.40;;;18.80;99.90;;;;;;5078372;28;20603;-78
2021/06/22 04:30:35;;;;;;;7.45;4.18;;;18.80;99.90;;;;;;5074966;28;20031;-80
2021/06/22 04:33:02;;;;;;;7.45;4.88;;;18.80;99.90;;;;;;5077274;28;20096;-79
2021/06/22 04:35:31;;;;;;;7.78;5.40;;;18.80;99.90;;;;;;5052708;28;20024;-80
2021/06/22 04:38:01;;;;;;;11.05;5.35;;;18.70;99.90;;;;;;5069342;28;20444;-79
2021/06/22 04:40:28;;;;;;;9.63;5.65;;;18.70;99.90;;;;;;5073203;28;20032;-80
2021/06/22 04:42:53;;;;;;;9.85;5.70;;;18.70;99.90;;;;;;5068725;28;20030;-80
2021/06/22 04:45:19;;;;;;;8.25;5.43;;;18.60;99.90;;;;;;5066354;28;20110;-78
2021/06/22 04:47:45;;;;;;;10.68;7.00;;;18.50;99.90;;;;;;5067970;28;20028;-79
2021/06/22 04:50:11;;;;;;;12.15;6.75;;;18.50;99.90;;;;;;5060239;28;20425;-79
2021/06/22 04:52:37;;;;;;;11.60;7.18;;;18.50;99.90;;;;;;5061805;28;20034;-80
2021/06/22 04:55:11;;;;;;;12.48;7.38;;;18.40;99.90;;;;;;5068564;28;20442;-79
2021/06/22 04:57:38;;;;;;;12.35;7.78;;;18.50;99.90;;;;;;5058945;28;20108;-79
2021/06/22 05:00:05;;;;;;;10.38;7.07;;;18.70;99.90;;;;;;5075972;28;20071;-78
2021/06/22 05:02:30;;;;;;;11.00;6.95;;;18.80;99.90;;;;;;5081860;28;20025;-79
2021/06/22 05:04:56;;;;;;;10.70;6.88;;;18.90;99.90;;;;;;5077490;28;20407;-78
2021/06/22 05:07:22;;;;;;;12.55;7.20;;;18.90;99.90;;;;;;5076630;28;20005;-79
2021/06/22 05:09:47;;;;;;;10.82;6.78;;;18.90;99.90;;;;;;5077892;28;20020;-79
2021/06/22 05:12:13;;;;;;;10.02;6.85;;;18.90;99.90;;;;;;5073547;28;20511;-79
2021/06/22 05:14:39;;;;;;;10.10;7.35;;;18.90;99.90;;;;;;5054090;28;20036;-79
2021/06/22 05:17:04;;;;;;;10.30;7.43;;;18.90;99.90;;;;;;5080803;28;20033;-79
2021/06/22 05:19:30;;;;;;;13.73;7.80;;;18.90;99.90;;;;;;5083672;28;20042;-80
2021/06/22 05:21:56;;;;;;;12.77;7.90;;;18.90;99.90;;;;;;5083815;28;20028;-79
2021/06/22 05:24:21;;;;;;;12.15;7.65;;;18.90;99.90;;;;;;5059854;28;20020;-79
2021/06/22 05:26:48;;;;;;;9.60;7.00;;;18.90;99.90;;;;;;5072099;28;20028;-79
2021/06/22 05:29:13;;;;;;;8.88;6.70;;;18.80;99.90;;;;;;5077281;28;20060;-79
2021/06/22 05:31:39;;;;;;;8.02;6.00;;;18.80;99.90;;;;;;5073024;28;20041;-79
2021/06/22 05:34:05;;;;;;;11.68;6.63;;;18.80;99.90;;;;;;5074493;28;20040;-79
2021/06/22 05:36:30;;;;;;;10.10;6.45;;;18.80;99.90;;;;;;5070751;28;20035;-79
2021/06/22 05:38:56;;;;;;;10.00;7.10;;;18.70;99.90;;;;;;5071848;28;20050;-80
2021/06/22 05:41:22;;;;;;;8.70;6.07;;;18.70;99.90;;;;;;5062225;28;20126;-79
2021/06/22 05:43:49;;;;;;;10.13;6.53;;;18.80;99.90;;;;;;5053868;28;20024;-78
2021/06/22 05:46:20;;;;;;;7.30;5.60;;;18.80;99.90;;;;;;5074049;28;20066;-80
2021/06/22 05:48:46;;;;;;;9.35;5.28;;;18.80;99.90;;;;;;5072410;28;20528;-79
2021/06/22 05:51:12;;;;;;;8.45;5.88;;;18.90;99.90;;;;;;5078884;28;20037;-79
2021/06/22 05:53:37;;;;;;;7.72;5.45;;;18.80;99.90;;;;;;5083154;28;20028;-79
2021/06/22 05:56:03;;;;;;;9.52;6.18;;;18.90;99.90;;;;;;5069614;28;20147;-79
2021/06/22 05:58:29;;;;;;;10.35;5.95;;;19.00;99.90;;;;;;5055957;28;20025;-79
2021/06/22 06:00:54;;;;;;;8.85;5.68;;;19.00;99.90;;;;;;5055755;28;20443;-79
2021/06/22 06:03:20;;;;;;;6.32;4.78;;;19.20;99.90;;;;;;5063910;28;20438;-79
2021/06/22 06:05:46;;;;;;;7.95;5.20;;;19.20;99.90;;;;;;5069533;28;20054;-79
2021/06/22 06:08:11;;;;;;;6.90;5.20;;;19.20;99.90;;;;;;5077605;28;20036;-80
2021/06/22 06:10:37;;;;;;;8.82;5.60;;;19.10;99.90;;;;;;5075748;28;20506;-80
2021/06/22 06:13:03;;;;;;;6.47;4.95;;;19.20;99.90;;;;;;5061722;28;20107;-80
2021/06/22 06:15:28;;;;;;;7.78;5.43;;;19.20;99.90;;;;;;5054804;28;20493;-80
2021/06/22 06:17:54;;;;;;;8.27;4.65;;;19.30;99.90;;;;;;5056315;28;20029;-79
2021/06/22 06:20:20;;;;;;;7.45;5.47;;;19.30;99.90;;;;;;5062093;28;20510;-80
2021/06/22 06:22:47;;;;;;;8.63;5.18;;;19.30;99.90;;;;;;5080491;28;20497;-80
2021/06/22 06:25:16;;;;;;;7.10;5.38;;;19.40;99.90;;;;;;5056094;28;20376;-79
2021/06/22 06:30:17;;;;;;;8.25;6.07;;;19.40;99.90;;;;;;5076903;28;20032;-79
2021/06/22 06:32:44;;;;;;;8.40;5.90;;;19.40;99.90;;;;;;5068833;28;20039;-78
2021/06/22 06:35:11;;;;;;;9.85;5.35;;;19.50;99.90;;;;;;5080359;28;20056;-77
2021/06/22 06:37:38;;;;;;;6.95;4.80;;;19.50;99.90;;;;;;5080320;28;20020;-77
2021/06/22 06:40:07;;;;;;;7.07;4.93;;;19.50;99.90;;;;;;5066069;28;20028;-78
2021/06/22 06:42:33;;;;;;;7.32;4.40;;;19.60;99.90;;;;;;5067911;28;20024;-78
2021/06/22 06:45:01;;;;;;;8.77;4.80;;;19.70;99.90;;;;;;5062343;28;20055;-77
2021/06/22 06:47:26;;;;;;;7.57;5.22;;;19.80;99.90;;;;;;5072550;28;20435;-78
2021/06/22 06:49:52;;;;;;;7.15;4.75;;;19.80;99.90;;;;;;5072864;28;20025;-78
2021/06/22 06:52:19;;;;;;;7.45;4.50;;;19.90;99.90;;;;;;5053661;28;20036;-77
2021/06/22 06:54:45;;;;;;;6.20;4.25;;;19.90;99.90;;;;;;5061144;28;20150;-78
2021/06/22 06:57:11;;;;;;;6.32;4.43;;;20.00;99.90;;;;;;5056773;28;20703;-77
2021/06/22 06:59:42;;;;;;;7.63;3.80;;;20.00;99.90;;;;;;5039092;28;20105;-77
2021/06/22 07:02:09;;;;;;;6.20;4.10;;;20.00;99.90;;;;;;5069530;28;20032;-78
2021/06/22 07:04:35;;;;;;;6.60;4.03;;;20.00;99.90;;;;;;5058799;28;20586;-78
2021/06/22 07:07:01;;;;;;;7.20;3.88;;;20.00;99.90;;;;;;5072410;28;20032;-77
2021/06/22 07:09:27;;;;;;;6.53;4.30;;;20.10;99.90;;;;;;5072023;28;20405;-77
2021/06/22 07:11:56;;;;;;;6.95;3.60;;;20.10;99.90;;;;;;5071201;28;20035;-77
2021/06/22 07:14:22;;;;;;;6.38;3.50;;;20.20;99.90;;;;;;5037684;28;20033;-79
2021/06/22 07:16:49;;;;;;;5.55;3.42;;;20.30;99.90;;;;;;5093206;28;20113;-79
2021/06/22 07:19:18;;;;;;;6.05;3.55;;;20.60;99.90;;;;;;5087698;28;20046;-79
2021/06/22 07:21:46;;;;;;;7.43;4.03;;;20.80;99.90;;;;;;5069480;28;20120;-79
2021/06/22 07:24:13;;;;;;;7.50;4.10;;;21.00;99.90;;;;;;5042266;28;20123;-77
2021/06/22 07:26:39;;;;;;;6.28;4.00;;;21.10;99.90;;;;;;5056895;28;20027;-78
2021/06/22 07:29:06;;;;;;;6.18;3.97;;;21.00;99.90;;;;;;5048157;28;20120;-78
2021/06/22 07:31:38;;;;;;;5.50;3.03;;;21.10;99.90;;;;;;5077379;28;20032;-79
2021/06/22 07:34:05;;;;;;;5.65;3.00;;;21.10;99.90;;;;;;5077629;28;20370;-78
2021/06/22 07:36:30;;;;;;;4.75;3.38;;;21.30;99.90;;;;;;5072404;28;20040;-78
2021/06/22 07:38:56;;;;;;;5.25;3.28;;;21.40;99.90;;;;;;5050127;28;20043;-79
2021/06/22 07:41:22;;;;;;;7.15;3.13;;;21.70;99.90;;;;;;5048964;28;20036;-79
2021/06/22 07:43:48;;;;;;;5.88;3.05;;;21.90;99.90;;;;;;5091024;28;20044;-79
2021/06/22 07:46:15;;;;;;;7.80;3.33;;;22.10;99.90;;;;;;5075380;28;20048;-78
2021/06/22 07:48:41;;;;;;;6.53;3.22;;;22.30;99.90;;;;;;5080212;28;20021;-78
2021/06/22 07:51:08;;;;;;;4.75;2.65;;;22.40;99.90;;;;;;5078674;28;20037;-78
2021/06/22 07:53:33;;;;;;;5.97;3.03;;;22.20;99.90;;;;;;5069595;28;20039;-79
2021/06/22 07:55:59;;;;;;;5.38;3.17;;;22.00;99.90;;;;;;5040912;28;20029;-79
2021/06/22 07:58:25;;;;;;;6.35;2.95;;;21.80;99.90;;;;;;5040351;28;20028;-79
2021/06/22 08:00:51;;;;;;;5.13;3.25;;;21.60;99.90;;;;;;5059445;28;20037;-79
2021/06/22 08:03:21;;;;;;;5.75;3.08;;;21.40;99.90;;;;;;5040589;28;20021;-82
2021/06/22 08:05:50;;;;;;;5.68;2.80;;;21.20;99.90;;;;;;5054150;28;20033;-82
2021/06/22 08:08:18;;;;;;;8.32;3.15;;;21.10;99.90;;;;;;5053267;28;20055;-82
2021/06/22 08:10:46;;;;;;;5.20;2.72;;;21.10;99.90;;;;;;5037087;28;20025;-82
2021/06/22 08:13:12;;;;;;;4.88;2.83;;;21.00;99.90;;;;;;5061331;28;20074;-83
2021/06/22 08:15:38;;;;;;;5.50;2.67;;;21.00;99.90;;;;;;5056817;28;20024;-81
2021/06/22 08:18:05;;;;;;;4.85;2.17;;;21.00;99.90;;;;;;5076274;28;20068;-82
2021/06/22 08:20:30;;;;;;;3.15;1.90;;;21.00;99.90;;;;;;5094036;28;20081;-81
2021/06/22 08:22:58;;;;;;;5.97;1.98;;;21.00;99.90;;;;;;5093571;28;20024;-82
2021/06/22 08:25:26;;;;;;;5.90;2.10;;;21.00;99.90;;;;;;5076014;28;20379;-81
2021/06/22 08:27:52;;;;;;;4.18;1.75;;;21.00;99.90;;;;;;5060740;28;20032;-82
2021/06/22 08:30:20;;;;;;;3.90;2.03;;;20.90;99.90;;;;;;5076541;28;20047;-82
2021/06/22 08:32:46;;;;;;;6.57;2.20;;;20.70;99.90;;;;;;5058252;28;20519;-82
2021/06/22 08:35:12;;;;;;;3.67;1.65;;;20.70;99.90;;;;;;5047937;28;20067;-82
2021/06/22 08:37:37;;;;;;;4.57;1.90;;;20.70;99.90;;;;;;5055948;28;20508;-83
2021/06/22 08:40:05;;;;;;;3.80;1.92;;;20.70;99.90;;;;;;5053626;28;20025;-81
2021/06/22 08:42:33;;;;;;;5.35;1.80;;;20.80;99.90;;;;;;5054973;28;20544;-80
2021/06/22 08:45:00;;;;;;;4.22;2.00;;;20.80;99.90;;;;;;5055640;28;20505;-82
2021/06/22 08:47:29;;;;;;;4.00;1.98;;;20.90;99.90;;;;;;5056160;28;20059;-85
2021/06/22 08:49:57;;;;;;;3.00;1.30;;;21.00;99.90;;;;;;5037247;28;20036;-82
2021/06/22 08:52:26;;;;;;;5.03;1.88;;;20.90;99.90;;;;;;5041839;28;20575;-81
2021/06/22 08:54:54;;;;;;;5.22;1.55;;;20.80;99.90;;;;;;5036835;28;20391;-81
2021/06/22 08:57:21;;;;;;;3.70;1.48;;;20.80;99.90;;;;;;5054008;28;20120;-82
2021/06/22 08:59:47;;;;;;;4.15;1.65;;;20.80;99.90;;;;;;5055244;28;20017;-80
2021/06/22 09:02:14;;;;;;;2.95;1.35;;;20.80;99.90;;;;;;5051845;28;20025;-80
2021/06/22 09:04:40;;;;;;;2.80;1.67;;;20.90;99.90;;;;;;5053098;28;20112;-81
2021/06/22 09:07:06;;;;;;;3.95;1.58;;;20.90;99.90;;;;;;5051869;28;20057;-80
2021/06/22 09:09:35;;;;;;;2.40;1.50;;;20.90;99.90;;;;;;5052292;28;20037;-80
2021/06/22 09:12:25;;;;;;;4.95;1.77;;;20.90;99.90;;;;;;5051610;28;20021;-80
2021/06/22 09:14:51;;;;;;;4.47;2.08;;;21.00;99.90;;;;;;5051492;28;20509;-79
2021/06/22 09:17:17;;;;;;;3.80;2.13;;;21.00;99.90;;;;;;5052712;28;20036;-80
2021/06/22 09:19:49;;;;;;;7.05;2.47;;;21.20;99.90;;;;;;5062801;28;20024;-80
2021/06/22 09:22:18;;;;;;;4.57;2.72;;;21.40;99.90;;;;;;5092703;28;20023;-81
2021/06/22 09:25:10;;;;;;;4.90;2.75;;;21.50;99.90;;;;;;5092621;28;20529;-82
2021/06/22 09:27:47;;;;;;;5.70;3.08;;;21.50;99.90;;;;;;5067669;28;20044;-81
2021/06/22 09:30:13;;;;;;;4.80;2.38;;;21.40;99.90;;;;;;5051304;28;20606;-81
2021/06/22 09:32:39;;;;;;;5.43;2.50;;;21.30;99.90;;;;;;5052210;28;20065;-81
2021/06/22 09:35:20;;;;;;;6.80;2.22;;;21.30;99.90;;;;;;5051084;28;20115;-81
2021/06/22 09:37:53;;;;;;;5.80;2.72;;;21.30;99.90;;;;;;5052116;28;20509;-80
2021/06/22 09:40:29;;;;;;;6.63;2.90;;;21.40;99.90;;;;;;5050964;28;20032;-81
2021/06/22 09:42:57;;;;;;;5.93;3.50;;;21.50;99.90;;;;;;5034033;28;20029;-81
2021/06/22 09:45:23;;;;;;;4.18;2.30;;;21.60;99.90;;;;;;5051568;28;20029;-82
2021/06/22 09:47:49;;;;;;;5.15;2.75;;;21.70;99.90;;;;;;5052037;28;20388;-81
2021/06/22 09:50:43;;;;;;;4.13;2.28;;;21.60;99.90;;;;;;5055021;28;20021;-83
2021/06/22 09:53:24;;;;;;;4.50;2.22;;;21.70;99.90;;;;;;5036772;28;20059;-83
2021/06/22 09:55:50;;;;;;;6.00;3.23;;;21.80;99.90;;;;;;5035298;28;20048;-82
2021/06/22 09:58:16;;;;;;;7.35;3.17;;;21.70;99.90;;;;;;5041053;28;20371;-84
2021/06/22 10:00:41;;;;;;;5.63;3.30;;;21.50;99.90;;;;;;5053041;28;20021;-84
2021/06/22 10:03:10;;;;;;;7.13;3.10;;;21.40;99.90;;;;;;5054537;28;20483;-85
2021/06/22 10:05:52;;;;;;;6.90;3.80;;;21.50;99.90;;;;;;5054442;28;20033;-84
2021/06/22 10:08:18;;;;;;;5.40;3.80;;;21.40;99.90;;;;;;5054978;28;20116;-84
2021/06/22 10:10:43;;;;;;;5.82;3.10;;;21.40;99.90;;;;;;5053660;28;20478;-83
2021/06/22 10:13:29;;;;;;;3.95;2.50;;;21.50;99.90;;;;;;5053624;28;20104;-84
2021/06/22 10:16:24;;;;;;;5.05;3.40;;;21.60;99.90;;;;;;5035527;28;20031;-83
2021/06/22 10:18:50;;;;;;;5.15;3.45;;;21.60;99.90;;;;;;5035101;28;20513;-82
2021/06/22 10:21:16;;;;;;;4.97;3.22;;;21.60;99.90;;;;;;5089129;28;20028;-82
2021/06/22 10:23:43;;;;;;;6.28;3.10;;;21.40;99.90;;;;;;5091569;28;20012;-84
2021/06/22 10:26:09;;;;;;;6.78;3.13;;;21.40;99.90;;;;;;5089943;28;20024;-84
2021/06/22 10:28:36;;;;;;;7.85;4.28;;;21.20;99.90;;;;;;5072360;28;20138;-83
2021/06/22 10:31:02;;;;;;;9.35;4.25;;;21.10;99.90;;;;;;5058038;28;20052;-84
2021/06/22 10:33:29;;;;;;;7.38;3.83;;;21.00;99.90;;;;;;5057607;28;20037;-82
2021/06/22 10:35:55;;;;;;;7.35;3.97;;;20.80;99.90;;;;;;5069037;28;20025;-83
2021/06/22 10:38:22;;;;;;;7.40;3.83;;;20.70;99.90;;;;;;5068791;28;20020;-83
2021/06/22 10:40:56;;;;;;;6.20;3.90;;;20.60;99.90;;;;;;5060842;28;20026;-84
2021/06/22 10:43:48;;;;;;;6.45;4.38;;;20.30;99.90;;;;;;5078236;28;20027;-83
2021/06/22 10:46:15;;;;;;;;;;;20.10;99.90;;;;;;5065643;28;20517;-83
2021/06/22 10:48:49;;;;;;;5.28;3.63;;;20.00;99.90;;;;;;5059136;28;19936;-84
2021/06/22 10:51:47;;;;;;;7.13;3.97;;;20.00;99.90;;;;;;5076260;28;20048;-83
2021/06/22 10:54:48;;;;;;;6.55;4.00;;;19.80;99.90;;;;;;5040121;28;20028;-83
2021/06/22 10:57:14;;;;;;;8.48;4.35;;;19.80;99.90;;;;;;5056441;28;20029;-83
2021/06/22 10:59:59;;;;;;;7.63;4.10;;;19.70;99.90;;;;;;5055403;28;20082;-83
2021/06/22 11:03:03;;;;;;;7.05;3.83;;;19.60;99.90;;;;;;5045977;28;20111;-84
2021/06/22 11:05:30;;;;;;;6.47;3.53;;;19.60;99.90;;;;;;5077863;28;20039;-85
2021/06/22 11:08:08;;;;;;;5.28;3.55;;;19.60;99.90;;;;;;5062150;28;20546;-83
2021/06/22 11:10:37;;;;;;;5.60;3.28;;;19.60;99.90;;;;;;5063421;28;20031;-81
2021/06/22 11:13:04;;;;;;;5.60;3.50;;;19.60;99.90;;;;;;5050767;28;21279;-81
2021/06/22 11:15:46;;;;;;;5.40;2.90;;;19.60;99.90;;;;;;5071029;28;20405;-83
2021/06/22 11:18:18;;;;;;;8.73;3.17;;;19.60;99.90;;;;;;5072770;28;20032;-81
2021/06/22 11:21:07;;;;;;;7.50;3.08;;;19.60;99.90;;;;;;5048995;28;20471;-81
2021/06/22 11:23:54;;;;;;;6.22;3.25;;;19.60;99.90;;;;;;5048530;28;20033;-82
2021/06/22 11:26:20;;;;;;;5.18;3.30;;;19.50;99.90;;;;;;5054792;28;20393;-81
2021/06/22 11:29:00;;;;;;;7.32;3.60;;;19.50;99.90;;;;;;5054391;28;20035;-82
2021/06/22 11:31:38;;;;;;;7.13;3.60;;;19.30;99.90;;;;;;5065083;28;20033;-81
2021/06/22 11:34:09;;;;;;;6.82;3.67;;;19.20;99.90;;;;;;5057642;28;20480;-82
2021/06/22 11:36:52;;;;;;;7.03;3.95;;;19.20;99.90;;;;;;5071525;28;20048;-82
2021/06/22 11:39:24;;;;;;;6.05;4.10;;;19.20;99.90;;;;;;5053384;28;20039;-83
2021/06/22 11:42:11;;;;;;;6.80;4.30;;;19.10;99.90;;;;;;5060247;28;20024;-83
2021/06/22 11:44:46;;;;;;;6.43;3.83;;;19.10;99.90;;;;;;5052038;28;20397;-84
2021/06/22 11:47:24;;;;;;;8.57;4.13;;;19.00;99.90;;;;;;5056119;28;20681;-81
2021/06/22 11:49:50;;;;;;;6.65;4.10;;;19.00;99.90;;;;;;5067655;28;20039;-82
2021/06/22 11:52:20;;;;;;;7.05;3.75;;;18.90;99.90;;;;;;5075969;28;20028;-82
2021/06/22 11:54:54;;;;;;;6.75;3.55;;;19.00;99.90;;;;;;5053655;28;20028;-82
2021/06/22 11:57:26;;;;;;;7.13;4.50;;;19.00;99.90;;;;;;5045235;28;20110;-81
2021/06/22 11:59:54;;;;;;;7.00;3.90;;;19.00;99.90;;;;;;5051676;28;20358;-80
2021/06/22 12:02:19;;;;;;;6.38;3.72;;;19.00;99.90;;;;;;5073171;28;20554;-80
2021/06/22 12:04:47;;;;;;;6.57;3.17;;;18.90;99.90;;;;;;5071928;28;20021;-82
2021/06/22 12:07:13;;;;;;;5.80;3.08;;;18.90;99.90;;;;;;5053984;28;20100;-80
2021/06/22 12:09:40;;;;;;;5.40;3.20;;;18.90;99.90;;;;;;5072897;28;20708;-80
2021/06/22 12:12:07;;;;;;;7.35;3.20;;;18.90;99.90;;;;;;5072392;28;20465;-81
2021/06/22 12:14:32;;;;;;;6.03;3.42;;;18.90;99.90;;;;;;5057231;28;20033;-80
2021/06/22 12:17:19;;;;;;;6.82;3.25;;;18.90;99.90;;;;;;5052792;28;20036;-81
2021/06/22 12:19:46;;;;;;;6.88;3.22;;;18.90;99.90;;;;;;5074470;28;20016;-80
2021/06/22 12:22:14;;;;;;;7.95;3.30;;;18.90;99.90;;;;;;5054020;28;20031;-81
2021/06/22 12:24:42;;;;;;;6.05;3.47;;;18.80;99.90;;;;;;5067032;28;20033;-80
2021/06/22 12:27:09;;;;;;;6.07;3.17;;;18.80;99.90;;;;;;5071930;28;20021;-81
2021/06/22 12:29:35;;;;;;;6.20;3.55;;;18.80;99.90;;;;;;5069147;28;20020;-78
2021/06/22 12:32:05;;;;;;;4.80;2.80;;;18.70;99.90;;;;;;5054173;28;20510;-79
2021/06/22 12:34:37;;;;;;;4.40;2.95;;;18.60;99.90;;;;;;5073190;28;20049;-81
2021/06/22 12:37:16;;;;;;;4.88;2.80;;;18.60;99.90;;;;;;5080837;28;20039;-79
2021/06/22 12:39:43;;;;;;;7.55;3.17;;;18.50;99.90;;;;;;5069408;28;21004;-80
2021/06/22 12:42:11;;;;;;;5.13;3.38;;;18.40;99.90;;;;;;5068779;28;20103;-82
2021/06/22 12:44:38;;;;;;;5.57;2.97;;;18.40;99.90;;;;;;5071656;28;20017;-80
2021/06/22 12:47:09;;;;;;;6.35;3.78;;;18.30;99.90;;;;;;5053603;28;20101;-81
2021/06/22 12:49:37;;;;;;;9.45;3.40;;;18.30;99.90;;;;;;5044082;28;20028;-80
2021/06/22 12:52:05;;;;;;;6.50;3.40;;;18.20;99.90;;;;;;5049398;28;20052;-81
2021/06/22 12:54:35;;;;;;;7.40;3.60;;;18.20;99.90;;;;;;5048873;28;20025;-80